createdAt,value
2016-10-25T00:00:07.339Z,22.72
2016-10-25T00:01:20.974Z,22.72
2016-10-25T00:02:34.070Z,22.77
2016-10-25T00:03:47.724Z,22.75
2016-10-25T00:05:01.239Z,22.61
2016-10-25T00:06:14.798Z,22.6
2016-10-25T00:07:28.409Z,22.61
2016-10-25T00:08:41.709Z,22.67
2016-10-25T00:09:54.952Z,22.68
2016-10-25T00:11:07.947Z,22.68
2016-10-25T00:12:21.577Z,22.64
2016-10-25T00:13:34.638Z,22.61
2016-10-25T00:14:47.662Z,22.68
2016-10-25T00:16:00.957Z,22.73
2016-10-25T00:17:14.552Z,22.83
2016-10-25T00:18:27.619Z,22.76
2016-10-25T00:19:41.090Z,22.85
2016-10-25T00:20:54.651Z,22.88
2016-10-25T00:22:07.683Z,22.85
2016-10-25T00:23:21.259Z,22.75
2016-10-25T00:24:34.256Z,22.64
2016-10-25T00:25:47.751Z,22.75
2016-10-25T00:27:01.336Z,22.76
2016-10-25T00:28:13.848Z,22.65
2016-10-25T00:29:27.685Z,22.62
2016-10-25T00:30:41.191Z,22.61
2016-10-25T00:31:54.159Z,22.61
2016-10-25T00:33:07.197Z,22.61
2016-10-25T00:34:20.551Z,22.61
2016-10-25T00:35:34.146Z,22.61
2016-10-25T00:36:47.181Z,22.62
2016-10-25T00:38:01.083Z,22.65
2016-10-25T00:39:14.625Z,22.62
2016-10-25T00:40:28.238Z,22.51
2016-10-25T00:41:41.746Z,22.52
2016-10-25T00:42:55.333Z,22.54
2016-10-25T00:44:08.954Z,22.36
2016-10-25T00:45:22.427Z,22.24
2016-10-25T00:46:35.980Z,22.24
2016-10-25T00:47:49.518Z,22.2
2016-10-25T00:49:03.399Z,22.24
2016-10-25T00:50:16.956Z,22.42
2016-10-25T00:51:29.777Z,22.2
2016-10-25T00:52:43.389Z,22.22
2016-10-25T00:53:57.561Z,22.21
2016-10-25T00:55:11.122Z,22.43
2016-10-25T00:56:24.687Z,22.28
2016-10-25T00:57:38.280Z,22.3
2016-10-25T00:58:51.789Z,22.2
2016-10-25T01:00:05.386Z,22.2
2016-10-25T01:01:18.428Z,22.27
2016-10-25T01:02:32.052Z,22.2
2016-10-25T01:03:45.616Z,22.12
2016-10-25T01:04:59.150Z,22.18
2016-10-25T01:06:12.783Z,22.15
2016-10-25T01:07:26.386Z,22.15
2016-10-25T01:08:39.878Z,22.1
2016-10-25T01:09:53.467Z,22.12
2016-10-25T01:11:07.016Z,22.15
2016-10-25T01:12:20.615Z,22.12
2016-10-25T01:13:34.278Z,22.15
2016-10-25T01:14:47.864Z,22.2
2016-10-25T01:16:01.368Z,22.15
2016-10-25T01:17:14.879Z,22.15
2016-10-25T01:18:28.439Z,22.17
2016-10-25T01:19:42.049Z,22.12
2016-10-25T01:20:56.112Z,22.25
2016-10-25T01:22:09.602Z,22.15
2016-10-25T01:23:23.267Z,22.14
2016-10-25T01:24:36.815Z,22.28
2016-10-25T01:25:49.497Z,22.18
2016-10-25T01:27:03.097Z,22.1
2016-10-25T01:28:16.671Z,22.17
2016-10-25T01:29:29.981Z,22.2
2016-10-25T01:30:43.504Z,22.25
2016-10-25T01:31:57.134Z,22.22
2016-10-25T01:33:10.705Z,22.21
2016-10-25T01:34:23.699Z,22.24
2016-10-25T01:35:37.238Z,22.2
2016-10-25T01:36:50.016Z,22.14
2016-10-25T01:38:03.224Z,22.15
2016-10-25T01:39:16.771Z,21.96
2016-10-25T01:40:30.541Z,21.92
2016-10-25T01:41:44.103Z,21.91
2016-10-25T01:42:57.170Z,22.03
2016-10-25T01:44:10.758Z,21.91
2016-10-25T01:45:23.986Z,21.92
2016-10-25T01:46:37.590Z,21.91
2016-10-25T01:47:51.136Z,21.92
2016-10-25T01:49:04.246Z,21.88
2016-10-25T01:50:17.807Z,21.92
2016-10-25T01:51:31.485Z,21.84
2016-10-25T01:52:44.761Z,21.8
2016-10-25T01:53:57.799Z,21.77
2016-10-25T01:55:11.102Z,21.68
2016-10-25T01:56:24.731Z,21.71
2016-10-25T01:57:37.710Z,21.72
2016-10-25T01:58:50.779Z,21.82
2016-10-25T02:00:04.389Z,21.88
2016-10-25T02:01:18.021Z,21.9
2016-10-25T02:02:29.969Z,21.91
2016-10-25T02:03:43.481Z,21.92
2016-10-25T02:04:57.100Z,21.83
2016-10-25T02:06:10.709Z,21.84
2016-10-25T02:07:23.706Z,21.88
2016-10-25T02:08:36.753Z,21.91
2016-10-25T02:09:50.323Z,21.83
2016-10-25T02:11:03.348Z,21.88
2016-10-25T02:12:16.906Z,21.9
2016-10-25T02:13:30.151Z,21.91
2016-10-25T02:14:43.127Z,21.88
2016-10-25T02:15:56.668Z,21.94
2016-10-25T02:17:09.141Z,21.82
2016-10-25T02:18:21.708Z,21.79
2016-10-25T02:19:35.287Z,21.98
2016-10-25T02:20:48.888Z,21.79
2016-10-25T02:22:02.389Z,21.91
2016-10-25T02:23:15.922Z,21.88
2016-10-25T02:24:29.508Z,21.86
2016-10-25T02:25:43.010Z,21.91
2016-10-25T02:26:56.730Z,21.83
2016-10-25T02:28:10.287Z,21.88
2016-10-25T02:29:23.468Z,21.88
2016-10-25T02:30:36.477Z,21.84
2016-10-25T02:31:49.493Z,21.86
2016-10-25T02:33:02.994Z,21.84
2016-10-25T02:34:16.532Z,21.86
2016-10-25T02:35:30.061Z,21.91
2016-10-25T02:36:43.654Z,21.86
2016-10-25T02:37:57.197Z,21.84
2016-10-25T02:39:09.694Z,21.79
2016-10-25T02:40:22.729Z,21.84
2016-10-25T02:41:36.274Z,21.9
2016-10-25T02:42:49.825Z,21.86
2016-10-25T02:44:03.945Z,21.82
2016-10-25T02:45:17.425Z,21.74
2016-10-25T02:46:30.977Z,21.88
2016-10-25T02:47:44.007Z,21.92
2016-10-25T02:48:57.753Z,21.96
2016-10-25T02:50:11.277Z,21.9
2016-10-25T02:51:24.877Z,21.79
2016-10-25T02:52:38.446Z,21.77
2016-10-25T02:53:52.021Z,21.65
2016-10-25T02:55:05.626Z,21.82
2016-10-25T02:56:19.165Z,21.8
2016-10-25T02:57:32.746Z,21.69
2016-10-25T02:58:46.259Z,21.82
2016-10-25T02:59:59.741Z,21.71
2016-10-25T03:01:12.701Z,21.67
2016-10-25T03:02:26.536Z,21.56
2016-10-25T03:03:40.076Z,21.53
2016-10-25T03:04:53.567Z,21.52
2016-10-25T03:06:06.884Z,21.35
2016-10-25T03:07:20.414Z,21.34
2016-10-25T03:08:33.956Z,21.38
2016-10-25T03:09:47.589Z,21.37
2016-10-25T03:11:01.165Z,21.35
2016-10-25T03:12:14.746Z,21.37
2016-10-25T03:13:28.250Z,21.31
2016-10-25T03:14:41.864Z,21.38
2016-10-25T03:15:55.336Z,21.31
2016-10-25T03:17:08.900Z,21.31
2016-10-25T03:18:22.389Z,21.35
2016-10-25T03:19:35.654Z,21.34
2016-10-25T03:20:49.198Z,21.46
2016-10-25T03:22:02.735Z,21.47
2016-10-25T03:23:16.252Z,21.47
2016-10-25T03:24:29.814Z,21.54
2016-10-25T03:25:43.336Z,21.52
2016-10-25T03:26:56.856Z,21.56
2016-10-25T03:28:10.470Z,21.53
2016-10-25T03:29:24.029Z,21.52
2016-10-25T03:30:37.618Z,21.61
2016-10-25T03:31:50.631Z,21.56
2016-10-25T03:33:04.237Z,21.58
2016-10-25T03:34:17.778Z,21.69
2016-10-25T03:35:31.320Z,21.71
2016-10-25T03:36:44.287Z,21.75
2016-10-25T03:37:57.838Z,21.68
2016-10-25T03:39:11.383Z,21.69
2016-10-25T03:40:24.459Z,21.69
2016-10-25T03:41:36.899Z,21.68
2016-10-25T03:42:50.444Z,21.54
2016-10-25T03:44:04.008Z,21.52
2016-10-25T03:45:17.024Z,21.44
2016-10-25T03:46:29.752Z,21.44
2016-10-25T03:47:43.289Z,21.58
2016-10-25T03:48:56.649Z,21.59
2016-10-25T03:50:09.378Z,21.56
2016-10-25T03:51:22.907Z,21.59
2016-10-25T03:52:36.459Z,21.56
2016-10-25T03:53:50.443Z,21.52
2016-10-25T03:55:03.471Z,21.47
2016-10-25T03:56:16.593Z,21.43
2016-10-25T03:57:30.211Z,21.38
2016-10-25T03:58:43.810Z,21.52
2016-10-25T03:59:57.794Z,21.32
2016-10-25T04:01:11.367Z,21.34
2016-10-25T04:02:24.998Z,21.32
2016-10-25T04:03:38.554Z,21.38
2016-10-25T04:04:52.184Z,21.34
2016-10-25T04:06:05.828Z,21.42
2016-10-25T04:07:19.354Z,21.34
2016-10-25T04:08:32.940Z,21.34
2016-10-25T04:09:46.448Z,21.37
2016-10-25T04:10:59.241Z,21.27
2016-10-25T04:12:12.795Z,21.4
2016-10-25T04:13:26.655Z,21.38
2016-10-25T04:14:40.127Z,21.34
2016-10-25T04:15:53.742Z,21.35
2016-10-25T04:17:07.319Z,21.27
2016-10-25T04:18:20.618Z,21.27
2016-10-25T04:19:33.644Z,21.35
2016-10-25T04:20:47.136Z,21.32
2016-10-25T04:22:01.049Z,21.38
2016-10-25T04:23:14.638Z,21.29
2016-10-25T04:24:28.136Z,21.27
2016-10-25T04:25:41.622Z,21.21
2016-10-25T04:26:55.236Z,21.19
2016-10-25T04:28:08.886Z,21.14
2016-10-25T04:29:22.454Z,21.17
2016-10-25T04:30:35.965Z,21.25
2016-10-25T04:31:49.474Z,21.19
2016-10-25T04:33:03.048Z,21.13
2016-10-25T04:34:16.050Z,21.14
2016-10-25T04:35:29.873Z,21.14
2016-10-25T04:36:42.694Z,21.14
2016-10-25T04:37:56.811Z,21.13
2016-10-25T04:39:10.418Z,21.24
2016-10-25T04:40:24.025Z,21.14
2016-10-25T04:41:37.581Z,21.13
2016-10-25T04:42:51.146Z,20.99
2016-10-25T04:44:04.757Z,21.16
2016-10-25T04:45:18.337Z,21.19
2016-10-25T04:46:31.886Z,21.17
2016-10-25T04:47:45.371Z,21.16
2016-10-25T04:48:58.981Z,21.22
2016-10-25T04:50:12.530Z,21.28
2016-10-25T04:51:25.446Z,21.25
2016-10-25T04:52:38.994Z,21.29
2016-10-25T04:53:52.524Z,21.32
2016-10-25T04:55:06.059Z,21.31
2016-10-25T04:56:19.582Z,21.34
2016-10-25T04:57:33.169Z,21.4
2016-10-25T04:58:46.708Z,21.42
2016-10-25T04:59:59.770Z,21.37
2016-10-25T05:01:12.736Z,21.34
2016-10-25T05:02:25.803Z,21.35
2016-10-25T05:03:39.356Z,21.35
2016-10-25T05:04:52.973Z,21.28
2016-10-25T05:06:06.490Z,21.29
2016-10-25T05:07:20.502Z,21.31
2016-10-25T05:08:34.070Z,21.32
2016-10-25T05:09:47.076Z,21.21
2016-10-25T05:11:01.103Z,21.13
2016-10-25T05:12:14.686Z,21.21
2016-10-25T05:13:28.327Z,21.13
2016-10-25T05:14:41.096Z,21.12
2016-10-25T05:15:54.745Z,21.09
2016-10-25T05:17:08.306Z,21.13
2016-10-25T05:18:21.865Z,21.07
2016-10-25T05:19:34.852Z,21.04
2016-10-25T05:20:48.400Z,21.03
2016-10-25T05:22:01.969Z,21.04
2016-10-25T05:23:15.024Z,20.99
2016-10-25T05:24:28.595Z,21.01
2016-10-25T05:25:41.696Z,20.94
2016-10-25T05:26:54.738Z,20.94
2016-10-25T05:28:08.339Z,20.87
2016-10-25T05:29:21.916Z,20.97
2016-10-25T05:30:35.575Z,20.89
2016-10-25T05:31:49.140Z,20.89
2016-10-25T05:33:02.782Z,20.95
2016-10-25T05:34:16.220Z,20.95
2016-10-25T05:35:29.841Z,21.01
2016-10-25T05:36:43.477Z,20.98
2016-10-25T05:37:56.987Z,20.88
2016-10-25T05:39:10.534Z,20.99
2016-10-25T05:40:23.722Z,21.03
2016-10-25T05:41:37.671Z,20.98
2016-10-25T05:42:51.198Z,21.01
2016-10-25T05:44:04.692Z,21.04
2016-10-25T05:45:18.166Z,21.04
2016-10-25T05:46:31.724Z,21.07
2016-10-25T05:47:45.336Z,21.1
2016-10-25T05:48:58.924Z,21.14
2016-10-25T05:50:11.967Z,21.21
2016-10-25T05:51:24.951Z,21.21
2016-10-25T05:52:37.442Z,21.27
2016-10-25T05:53:51.023Z,21.13
2016-10-25T05:55:04.570Z,21.13
2016-10-25T05:56:18.162Z,21.17
2016-10-25T05:57:31.801Z,21.12
2016-10-25T05:58:45.322Z,21.1
2016-10-25T05:59:58.932Z,21.16
2016-10-25T06:01:12.555Z,21.13
2016-10-25T06:02:26.081Z,21.14
2016-10-25T06:03:39.678Z,21.19
2016-10-25T06:04:53.638Z,21.22
2016-10-25T06:06:06.683Z,21.28
2016-10-25T06:07:19.173Z,21.34
2016-10-25T06:08:32.763Z,21.32
2016-10-25T06:09:45.837Z,21.34
2016-10-25T06:10:59.122Z,21.4
2016-10-25T06:12:12.663Z,21.35
2016-10-25T06:13:26.764Z,21.31
2016-10-25T06:14:39.803Z,21.13
2016-10-25T06:15:53.660Z,21.27
2016-10-25T06:17:06.912Z,21.19
2016-10-25T06:18:20.495Z,21.13
2016-10-25T06:19:34.226Z,21.16
2016-10-25T06:20:47.371Z,21.12
2016-10-25T06:21:59.652Z,21.09
2016-10-25T06:23:12.758Z,21.07
2016-10-25T06:24:26.832Z,21.13
2016-10-25T06:25:40.429Z,21.14
2016-10-25T06:26:54.002Z,21.19
2016-10-25T06:28:07.069Z,21.31
2016-10-25T06:29:20.554Z,21.37
2016-10-25T06:30:34.071Z,21.42
2016-10-25T06:31:47.054Z,21.44
2016-10-25T06:33:01.121Z,21.5
2016-10-25T06:34:13.909Z,21.53
2016-10-25T06:35:26.394Z,21.42
2016-10-25T06:36:39.937Z,21.44
2016-10-25T06:37:53.045Z,21.37
2016-10-25T06:39:05.836Z,21.49
2016-10-25T06:40:19.408Z,21.52
2016-10-25T06:41:32.928Z,21.58
2016-10-25T06:42:46.450Z,21.56
2016-10-25T06:43:59.920Z,21.54
2016-10-25T06:45:12.913Z,21.54
2016-10-25T06:46:26.787Z,21.56
2016-10-25T06:47:39.765Z,21.42
2016-10-25T06:48:53.693Z,21.49
2016-10-25T06:50:06.774Z,21.52
2016-10-25T06:51:20.460Z,21.47
2016-10-25T06:52:33.667Z,21.46
2016-10-25T06:53:47.273Z,21.43
2016-10-25T06:55:01.061Z,21.37
2016-10-25T06:56:13.541Z,21.43
2016-10-25T06:57:27.098Z,21.37
2016-10-25T06:58:40.629Z,21.31
2016-10-25T06:59:54.193Z,21.35
2016-10-25T07:01:07.855Z,21.28
2016-10-25T07:02:21.389Z,21.29
2016-10-25T07:03:34.510Z,21.27
2016-10-25T07:04:47.527Z,21.29
2016-10-25T07:06:00.556Z,21.21
2016-10-25T07:07:13.656Z,21.27
2016-10-25T07:08:26.668Z,21.14
2016-10-25T07:09:38.649Z,21.16
2016-10-25T07:10:52.170Z,21.17
2016-10-25T07:12:05.783Z,21.29
2016-10-25T07:13:19.364Z,21.28
2016-10-25T07:14:32.401Z,21.32
2016-10-25T07:15:45.557Z,21.19
2016-10-25T07:16:59.080Z,21.16
2016-10-25T07:18:12.716Z,21.14
2016-10-25T07:19:25.453Z,21.06
2016-10-25T07:20:38.482Z,21.07
2016-10-25T07:21:52.013Z,21.07
2016-10-25T07:23:05.603Z,21.09
2016-10-25T07:24:19.165Z,20.98
2016-10-25T07:25:32.191Z,21.03
2016-10-25T07:26:45.182Z,21.01
2016-10-25T07:27:58.142Z,21.04
2016-10-25T07:29:11.215Z,20.97
2016-10-25T07:31:32.679Z,20.92
2016-10-25T07:32:46.280Z,20.91
2016-10-25T07:33:59.963Z,20.97
2016-10-25T07:35:13.550Z,20.87
2016-10-25T07:36:27.130Z,20.91
2016-10-25T07:37:40.217Z,20.97
2016-10-25T07:38:53.738Z,21.01
2016-10-25T07:40:07.374Z,20.99
2016-10-25T07:41:20.946Z,20.97
2016-10-25T07:42:34.528Z,20.97
2016-10-25T07:43:46.523Z,21.01
2016-10-25T07:45:00.034Z,20.95
2016-10-25T07:46:13.588Z,21.01
2016-10-25T07:47:27.215Z,20.98
2016-10-25T07:48:40.297Z,20.95
2016-10-25T07:49:53.836Z,21.07
2016-10-25T07:51:07.149Z,20.98
2016-10-25T07:52:20.725Z,21.04
2016-10-25T07:53:34.266Z,20.98
2016-10-25T07:54:47.587Z,21.01
2016-10-25T07:56:01.209Z,20.98
2016-10-25T07:57:14.226Z,20.88
2016-10-25T07:58:27.183Z,20.97
2016-10-25T07:59:40.242Z,20.91
2016-10-25T08:00:53.798Z,21.04
2016-10-25T08:02:07.789Z,21.09
2016-10-25T08:03:20.838Z,20.95
2016-10-25T08:04:34.424Z,20.99
2016-10-25T08:05:48.005Z,21.07
2016-10-25T08:07:01.651Z,21.04
2016-10-25T08:08:15.156Z,21.12
2016-10-25T08:09:28.710Z,21.07
2016-10-25T08:10:42.259Z,21.09
2016-10-25T08:11:56.018Z,21.07
2016-10-25T08:13:09.618Z,21.03
2016-10-25T08:14:22.116Z,21.09
2016-10-25T08:15:35.667Z,21.17
2016-10-25T08:16:49.283Z,21.17
2016-10-25T08:18:02.302Z,21.13
2016-10-25T08:19:15.906Z,21.19
2016-10-25T08:20:28.925Z,21.14
2016-10-25T08:21:42.420Z,21.09
2016-10-25T08:22:56.007Z,21.06
2016-10-25T08:24:09.575Z,21.1
2016-10-25T08:25:23.101Z,21.16
2016-10-25T08:26:36.745Z,21.17
2016-10-25T08:27:50.609Z,21.19
2016-10-25T08:29:03.659Z,21.09
2016-10-25T08:30:16.669Z,21.07
2016-10-25T08:31:30.279Z,21.04
2016-10-25T08:32:43.347Z,21.07
2016-10-25T08:33:55.847Z,21.07
2016-10-25T08:35:08.675Z,21.13
2016-10-25T08:36:22.263Z,21.16
2016-10-25T08:37:35.306Z,21.17
2016-10-25T08:38:48.905Z,21.14
2016-10-25T08:40:02.449Z,21.19
2016-10-25T08:41:16.043Z,21.09
2016-10-25T08:42:28.535Z,21.13
2016-10-25T08:43:42.068Z,21.19
2016-10-25T08:44:55.579Z,21.09
2016-10-25T08:46:09.090Z,21.07
2016-10-25T08:47:22.142Z,21.04
2016-10-25T08:48:35.735Z,20.97
2016-10-25T08:49:48.199Z,21.03
2016-10-25T08:51:01.232Z,20.99
2016-10-25T08:52:14.777Z,21.01
2016-10-25T08:53:27.458Z,21.01
2016-10-25T08:54:41.062Z,20.97
2016-10-25T08:55:54.659Z,21.07
2016-10-25T08:57:07.709Z,21.1
2016-10-25T08:58:21.050Z,21.1
2016-10-25T08:59:34.148Z,21.14
2016-10-25T09:00:47.672Z,21.19
2016-10-25T09:02:00.691Z,21.17
2016-10-25T09:03:13.689Z,21.25
2016-10-25T09:04:26.394Z,21.14
2016-10-25T09:05:39.431Z,21.21
2016-10-25T09:06:52.728Z,21.16
2016-10-25T09:08:06.267Z,21.22
2016-10-25T09:09:19.819Z,21.17
2016-10-25T09:10:32.821Z,21.13
2016-10-25T09:11:45.894Z,21.22
2016-10-25T09:13:00.071Z,21.16
2016-10-25T09:14:13.697Z,21.22
2016-10-25T09:15:27.281Z,21.28
2016-10-25T09:16:40.310Z,21.19
2016-10-25T09:17:53.934Z,21.37
2016-10-25T09:19:06.963Z,21.4
2016-10-25T09:20:20.558Z,21.34
2016-10-25T09:21:33.591Z,21.43
2016-10-25T09:22:46.819Z,21.35
2016-10-25T09:24:01.011Z,21.29
2016-10-25T09:25:14.604Z,21.34
2016-10-25T09:26:27.663Z,21.4
2016-10-25T09:27:41.303Z,21.42
2016-10-25T09:28:54.905Z,21.49
2016-10-25T09:30:08.472Z,21.47
2016-10-25T09:31:22.053Z,21.58
2016-10-25T09:32:34.572Z,21.56
2016-10-25T09:33:48.199Z,21.61
2016-10-25T09:35:01.852Z,21.64
2016-10-25T09:36:15.412Z,21.62
2016-10-25T09:37:29.011Z,21.67
2016-10-25T09:38:42.601Z,21.67
2016-10-25T09:39:56.175Z,21.67
2016-10-25T09:41:09.770Z,21.69
2016-10-25T09:42:23.893Z,21.64
2016-10-25T09:43:37.505Z,21.72
2016-10-25T09:44:51.144Z,21.71
2016-10-25T09:46:04.694Z,21.61
2016-10-25T09:47:18.234Z,21.65
2016-10-25T09:48:31.834Z,21.68
2016-10-25T09:49:44.908Z,21.75
2016-10-25T09:50:58.491Z,21.71
2016-10-25T09:52:12.026Z,21.75
2016-10-25T09:53:25.584Z,21.69
2016-10-25T09:54:39.146Z,21.79
2016-10-25T09:55:52.688Z,21.72
2016-10-25T09:57:06.384Z,21.75
2016-10-25T09:58:20.033Z,21.82
2016-10-25T09:59:33.292Z,21.86
2016-10-25T10:00:46.361Z,21.92
2016-10-25T10:02:00.104Z,21.94
2016-10-25T10:03:13.144Z,21.94
2016-10-25T10:04:27.002Z,22
2016-10-25T10:05:40.002Z,21.91
2016-10-25T10:06:52.798Z,21.88
2016-10-25T10:08:06.316Z,21.96
2016-10-25T10:09:19.322Z,22.14
2016-10-25T10:10:32.646Z,22.15
2016-10-25T10:11:45.175Z,22.15
2016-10-25T10:12:58.823Z,22.15
2016-10-25T10:14:12.383Z,22.21
2016-10-25T10:15:25.401Z,22.33
2016-10-25T10:16:37.946Z,22.36
2016-10-25T10:17:50.925Z,22.37
2016-10-25T10:19:03.927Z,22.52
2016-10-25T10:20:17.506Z,22.51
2016-10-25T10:21:31.260Z,22.55
2016-10-25T10:22:44.253Z,22.65
2016-10-25T10:23:58.200Z,22.62
2016-10-25T10:25:11.691Z,22.67
2016-10-25T10:26:25.254Z,22.6
2016-10-25T10:27:38.862Z,22.55
2016-10-25T10:28:52.474Z,22.61
2016-10-25T10:30:05.532Z,22.67
2016-10-25T10:31:19.217Z,22.54
2016-10-25T10:32:32.758Z,22.67
2016-10-25T10:33:46.331Z,22.54
2016-10-25T10:34:59.452Z,22.62
2016-10-25T10:36:12.093Z,22.76
2016-10-25T10:37:25.636Z,22.73
2016-10-25T10:38:38.585Z,22.75
2016-10-25T10:39:51.623Z,22.68
2016-10-25T10:41:05.225Z,22.8
2016-10-25T10:42:18.280Z,22.82
2016-10-25T10:43:31.859Z,22.88
2016-10-25T10:44:45.533Z,22.95
2016-10-25T10:45:59.121Z,23.02
2016-10-25T10:47:12.121Z,23.01
2016-10-25T10:48:25.721Z,22.98
2016-10-25T10:49:38.760Z,23.07
2016-10-25T10:50:52.369Z,23.07
2016-10-25T10:52:05.393Z,23.05
2016-10-25T10:53:19.003Z,23.1
2016-10-25T10:54:32.593Z,23.1
2016-10-25T10:55:46.130Z,23.01
2016-10-25T10:56:58.153Z,23.09
2016-10-25T10:58:11.162Z,23
2016-10-25T10:59:24.633Z,22.98
2016-10-25T11:00:38.222Z,22.97
2016-10-25T11:01:51.859Z,23
2016-10-25T11:03:04.879Z,23.02
2016-10-25T11:04:18.522Z,23.13
2016-10-25T11:05:31.330Z,23.07
2016-10-25T11:06:44.400Z,23.15
2016-10-25T11:07:58.245Z,23.17
2016-10-25T11:09:11.284Z,23.19
2016-10-25T11:10:24.442Z,23.36
2016-10-25T11:11:37.984Z,23.42
2016-10-25T11:12:51.620Z,23.38
2016-10-25T11:14:05.214Z,23.47
2016-10-25T11:15:18.330Z,23.53
2016-10-25T11:16:31.386Z,23.68
2016-10-25T11:17:44.968Z,23.72
2016-10-25T11:18:58.528Z,23.72
2016-10-25T11:20:12.138Z,23.83
2016-10-25T11:21:25.178Z,23.75
2016-10-25T11:22:38.168Z,23.78
2016-10-25T11:23:51.199Z,23.78
2016-10-25T11:25:04.215Z,23.87
2016-10-25T11:26:17.293Z,23.88
2016-10-25T11:27:31.343Z,23.88
2016-10-25T11:28:44.903Z,23.91
2016-10-25T11:29:57.939Z,23.88
2016-10-25T11:31:10.468Z,24.02
2016-10-25T11:32:24.063Z,24
2016-10-25T11:33:37.707Z,24.02
2016-10-25T11:34:51.345Z,23.95
2016-10-25T11:36:04.910Z,23.98
2016-10-25T11:37:18.486Z,23.88
2016-10-25T11:38:31.601Z,23.98
2016-10-25T11:39:44.588Z,23.98
2016-10-25T11:40:58.251Z,23.98
2016-10-25T11:42:11.368Z,24.09
2016-10-25T11:43:24.956Z,23.98
2016-10-25T11:44:37.492Z,24.02
2016-10-25T11:45:51.060Z,24.03
2016-10-25T11:47:04.075Z,24
2016-10-25T11:48:17.739Z,23.93
2016-10-25T11:49:31.307Z,24.02
2016-10-25T11:50:44.942Z,23.87
2016-10-25T11:51:58.497Z,23.9
2016-10-25T11:53:12.038Z,23.87
2016-10-25T11:54:24.988Z,23.85
2016-10-25T11:55:38.601Z,23.73
2016-10-25T11:56:52.131Z,23.83
2016-10-25T11:58:04.631Z,23.78
2016-10-25T11:59:18.131Z,23.85
2016-10-25T12:00:31.697Z,23.73
2016-10-25T12:01:45.321Z,23.85
2016-10-25T12:02:58.351Z,23.87
2016-10-25T12:04:11.375Z,23.79
2016-10-25T12:05:24.404Z,23.83
2016-10-25T12:06:37.999Z,23.73
2016-10-25T12:07:50.837Z,23.75
2016-10-25T12:09:04.364Z,23.79
2016-10-25T12:10:17.923Z,23.75
2016-10-25T12:11:31.573Z,23.78
2016-10-25T12:12:44.893Z,23.75
2016-10-25T12:13:58.520Z,23.68
2016-10-25T12:15:12.086Z,23.55
2016-10-25T12:16:24.572Z,23.51
2016-10-25T12:17:38.153Z,23.43
2016-10-25T12:18:51.209Z,23.36
2016-10-25T12:20:04.845Z,23.38
2016-10-25T12:21:18.412Z,23.32
2016-10-25T12:22:31.977Z,23.15
2016-10-25T12:23:45.091Z,23.13
2016-10-25T12:24:58.138Z,22.97
2016-10-25T12:26:11.468Z,23
2016-10-25T12:27:24.491Z,22.98
2016-10-25T12:28:38.007Z,22.88
2016-10-25T12:29:51.526Z,22.86
2016-10-25T12:31:05.072Z,22.88
2016-10-25T12:32:18.104Z,22.82
2016-10-25T12:33:31.627Z,22.75
2016-10-25T12:34:44.676Z,22.72
2016-10-25T12:35:58.333Z,22.8
2016-10-25T12:37:11.934Z,22.75
2016-10-25T12:38:25.544Z,22.68
2016-10-25T12:39:39.095Z,22.62
2016-10-25T12:40:52.109Z,22.61
2016-10-25T12:42:05.676Z,22.57
2016-10-25T12:43:18.697Z,22.51
2016-10-25T12:44:31.686Z,22.62
2016-10-25T12:45:45.274Z,22.49
2016-10-25T12:46:58.846Z,22.45
2016-10-25T12:48:12.370Z,22.52
2016-10-25T12:49:25.446Z,22.46
2016-10-25T12:50:37.920Z,22.42
2016-10-25T12:51:51.501Z,22.47
2016-10-25T12:53:05.080Z,22.46
2016-10-25T12:54:18.394Z,22.47
2016-10-25T12:55:31.430Z,22.57
2016-10-25T12:56:45.047Z,22.54
2016-10-25T12:57:58.629Z,22.61
2016-10-25T12:59:12.230Z,22.49
2016-10-25T13:00:25.811Z,22.55
2016-10-25T13:01:39.405Z,22.62
2016-10-25T13:02:53.018Z,22.51
2016-10-25T13:04:06.580Z,22.65
2016-10-25T13:05:20.167Z,22.61
2016-10-25T13:06:33.252Z,22.64
2016-10-25T13:07:46.811Z,22.7
2016-10-25T13:09:00.195Z,22.62
2016-10-25T13:10:13.806Z,22.64
2016-10-25T13:11:27.631Z,22.65
2016-10-25T13:12:40.933Z,22.61
2016-10-25T13:13:54.294Z,22.57
2016-10-25T13:15:07.889Z,22.62
2016-10-25T13:16:21.517Z,22.57
2016-10-25T13:17:35.071Z,22.61
2016-10-25T13:18:48.594Z,22.65
2016-10-25T13:20:02.231Z,22.67
2016-10-25T13:21:15.872Z,22.73
2016-10-25T13:22:29.459Z,22.75
2016-10-25T13:23:43.003Z,22.73
2016-10-25T13:24:57.114Z,22.7
2016-10-25T13:26:10.689Z,22.62
2016-10-25T13:27:24.334Z,22.65
2016-10-25T13:28:37.857Z,22.61
2016-10-25T13:29:51.455Z,22.61
2016-10-25T13:31:03.935Z,22.64
2016-10-25T13:32:17.070Z,22.52
2016-10-25T13:33:30.094Z,22.52
2016-10-25T13:34:43.713Z,22.6
2016-10-25T13:35:57.174Z,22.62
2016-10-25T13:37:10.758Z,22.62
2016-10-25T13:38:24.353Z,22.58
2016-10-25T13:39:37.374Z,22.57
2016-10-25T13:40:50.992Z,22.62
2016-10-25T13:42:04.030Z,22.67
2016-10-25T13:43:17.659Z,22.55
2016-10-25T13:44:30.911Z,22.47
2016-10-25T13:45:43.931Z,22.46
2016-10-25T13:46:57.500Z,22.49
2016-10-25T13:48:10.543Z,22.49
2016-10-25T13:49:24.152Z,22.49
2016-10-25T13:50:37.475Z,22.49
2016-10-25T13:51:50.973Z,22.58
2016-10-25T13:53:04.584Z,22.64
2016-10-25T13:54:18.207Z,22.75
2016-10-25T13:55:31.264Z,22.83
2016-10-25T13:56:44.276Z,22.92
2016-10-25T13:57:57.394Z,23
2016-10-25T13:59:10.163Z,23.2
2016-10-25T14:00:24.059Z,23.35
2016-10-25T14:01:37.631Z,23.36
2016-10-25T14:02:51.240Z,23.43
2016-10-25T14:04:04.361Z,23.68
2016-10-25T14:05:17.951Z,23.69
2016-10-25T14:06:31.262Z,23.73
2016-10-25T14:07:44.823Z,23.9
2016-10-25T14:08:57.925Z,24.02
2016-10-25T14:10:10.958Z,24.18
2016-10-25T14:11:24.103Z,24.25
2016-10-25T14:12:37.719Z,24.35
2016-10-25T14:13:51.247Z,24.62
2016-10-25T14:15:04.846Z,24.58
2016-10-25T14:16:18.548Z,24.71
2016-10-25T14:17:32.306Z,24.77
2016-10-25T14:18:45.314Z,24.71
2016-10-25T14:19:57.820Z,24.65
2016-10-25T14:21:10.297Z,24.4
2016-10-25T14:22:23.251Z,24.28
2016-10-25T14:23:36.276Z,24.2
2016-10-25T14:24:49.912Z,24.12
2016-10-25T14:26:03.423Z,24.21
2016-10-25T14:27:15.947Z,24.27
2016-10-25T14:28:29.240Z,24.22
2016-10-25T14:29:42.280Z,24.25
2016-10-25T14:30:55.862Z,24.22
2016-10-25T14:32:08.818Z,24.12
2016-10-25T14:33:22.433Z,24.06
2016-10-25T14:34:36.080Z,24.03
2016-10-25T14:35:49.123Z,24.06
2016-10-25T14:37:02.667Z,24.06
2016-10-25T14:38:15.685Z,23.98
2016-10-25T14:39:29.259Z,23.91
2016-10-25T14:40:42.316Z,23.87
2016-10-25T14:41:55.405Z,23.83
2016-10-25T14:43:08.435Z,23.8
2016-10-25T14:44:22.008Z,23.84
2016-10-25T14:45:35.641Z,23.85
2016-10-25T14:46:49.212Z,23.84
2016-10-25T14:48:02.863Z,23.85
2016-10-25T14:49:16.466Z,23.83
2016-10-25T14:50:30.161Z,23.84
2016-10-25T14:51:43.814Z,23.8
2016-10-25T14:52:57.363Z,23.84
2016-10-25T14:54:10.452Z,23.8
2016-10-25T14:55:24.081Z,23.83
2016-10-25T14:56:37.634Z,23.84
2016-10-25T14:57:51.143Z,23.78
2016-10-25T14:59:04.675Z,23.79
2016-10-25T15:00:17.298Z,23.84
2016-10-25T15:01:31.382Z,23.76
2016-10-25T15:02:44.932Z,23.79
2016-10-25T15:03:58.423Z,23.69
2016-10-25T15:05:12.082Z,23.68
2016-10-25T15:06:25.624Z,23.79
2016-10-25T15:07:39.214Z,23.75
2016-10-25T15:08:52.256Z,23.66
2016-10-25T15:10:04.725Z,23.69
2016-10-25T15:11:18.283Z,23.51
2016-10-25T15:12:31.811Z,23.46
2016-10-25T15:13:45.382Z,23.53
2016-10-25T15:14:58.981Z,23.48
2016-10-25T15:16:12.562Z,23.48
2016-10-25T15:17:26.095Z,23.51
2016-10-25T15:18:39.161Z,23.5
2016-10-25T15:19:52.683Z,23.38
2016-10-25T15:21:05.749Z,23.42
2016-10-25T15:22:18.295Z,23.31
2016-10-25T15:23:31.318Z,23.33
2016-10-25T15:24:44.414Z,23.23
2016-10-25T15:25:57.994Z,23.35
2016-10-25T15:27:11.072Z,23.27
2016-10-25T15:28:24.602Z,23.39
2016-10-25T15:29:37.354Z,23.27
2016-10-25T15:30:50.436Z,23.33
2016-10-25T15:32:04.414Z,23.38
2016-10-25T15:33:17.515Z,23.36
2016-10-25T15:34:31.546Z,23.28
2016-10-25T15:35:45.097Z,23.31
2016-10-25T15:36:58.695Z,23.35
2016-10-25T15:38:11.741Z,23.1
2016-10-25T15:39:25.332Z,23.2
2016-10-25T15:40:38.396Z,23.13
2016-10-25T15:41:52.002Z,22.97
2016-10-25T15:43:05.516Z,22.97
2016-10-25T15:44:19.116Z,22.79
2016-10-25T15:45:32.132Z,22.79
2016-10-25T15:46:45.644Z,22.83
2016-10-25T15:47:59.216Z,22.85